Terminal Aerodrome Forecast
Issued by NWS

Home | Current Version | Previous Version | Graphics & Text | Print | Product List | Glossary On
Versions: 1 2 3 4 5 6 7 8 9 10 11 12 13 14 15 16 17 18
000
FTUS43 KGRB 250537
TAFAUW
TAF
KAUW 250537Z 2506/2606 29010KT P6SM SCT017 OVC025
     FM251400 31012G20KT P6SM SCT025 BKN035
      TEMPO 2514/2517 BKN025
     FM260000 33009KT P6SM SCT040 BKN060
     FM260300 34004KT P6SM SKC=

USA.gov is the U.S. government's official web portal to all federal, state and local government web resources and services.